Flight Track Log - Related Links

Times and Time Zones

All times are in EDT time to prevent confusion due to time zone crossing. See the CPT7773 flight status page for this flight to view local times or setup timezone preferences in your user account.

Time Position Orientation Groundspeed Altitude Reporting Facility
EDT Latitude Longitude Course Direction KTS MPH feet Rate Location/Type
Mon 08:05:56 PM 44.5306 -108.8872 100° East 120 138 7,600  Level Salt Lake Center
Mon 08:06:58 PM 44.5247 -108.8428 100° East 118 136 8,400 774 Climbing Salt Lake Center
Mon 08:08:00 PM 44.5158 -108.7983 106° East 117 135 9,200 677 Climbing Salt Lake Center
Mon 08:09:02 PM 44.4917 -108.7628 134° Southeast 120 138 9,800 629 Climbing Salt Lake Center
Mon 08:10:04 PM 44.4639 -108.7217 133° Southeast 121 139 10,500 532 Climbing Salt Lake Center
Mon 08:11:06 PM 44.4394 -108.6828 131° Southeast 126 145 10,900 293 Climbing Salt Lake Center
Mon 08:12:07 PM 44.4133 -108.6433 133° Southeast 131 151 11,100 49 Climbing Salt Lake Center
Mon 08:13:09 PM 44.3842 -108.5994 133° Southeast 140 161 11,000 -48 Descending Salt Lake Center
Mon 08:14:11 PM 44.3533 -108.5506 131° Southeast 153 176 11,000  Level Salt Lake Center
Mon 08:15:13 PM 44.3244 -108.5042 131° Southeast 158 182 11,000  Level Salt Lake Center
Mon 08:16:15 PM 44.2897 -108.4522 133° Southeast 156 180 11,000  Level Salt Lake Center
Mon 08:17:17 PM 44.2611 -108.4075 132° Southeast 156 180 11,000  Level Salt Lake Center
Mon 08:18:18 PM 44.2319 -108.3631 132° Southeast 155 178 11,000  Level Salt Lake Center
Mon 08:19:20 PM 44.2036 -108.3167 130° Southeast 156 180 11,000  Level Salt Lake Center
Mon 08:20:22 PM 44.1744 -108.2731 133° Southeast 156 180 11,000  Level Salt Lake Center
Mon 08:21:24 PM 44.1458 -108.2294 132° Southeast 155 178 11,000 49 Level Salt Lake Center
Mon 08:22:25 PM 44.1167 -108.1856 133° Southeast 155 178 11,100 49 Climbing Salt Lake Center
Mon 08:23:27 PM 44.0803 -108.1311 133° Southeast 157 181 11,100 -48 Level Salt Lake Center
Mon 08:24:29 PM 44.0494 -108.0842 132° Southeast 160 184 11,000 -48 Descending Salt Lake Center
Mon 08:25:31 PM 44.0206 -108.0372 131° Southeast 161 185 11,000 -48 Level Salt Lake Center
Mon 08:26:33 PM 43.9908 -107.9942 134° Southeast 159 183 10,900  Descending Salt Lake Center
Mon 08:27:35 PM 43.9608 -107.9494 133° Southeast 158 182 11,000 49 Climbing Salt Lake Center
Mon 08:28:36 PM 43.9336 -107.9006 128° Southeast 158 182 11,000  Level Salt Lake Center
Mon 08:29:38 PM 43.9044 -107.8389 123° Southeast 159 183 11,000  Level Salt Lake Center
Mon 08:30:40 PM 43.8792 -107.7886 125° Southeast 159 183 11,000 -48 Level Salt Lake Center
Mon 08:31:42 PM 43.8536 -107.7394 126° Southeast 158 182 10,900  Descending Salt Lake Center
Mon 08:32:44 PM 43.8286 -107.6917 126° Southeast 157 181 11,000  Climbing Salt Lake Center
Mon 08:33:46 PM 43.8033 -107.6422 125° Southeast 157 181 10,900  Descending Salt Lake Center
Mon 08:34:48 PM 43.7781 -107.5933 126° Southeast 157 181 11,000 49 Climbing Salt Lake Center
Mon 08:35:49 PM 43.7475 -107.5344 126° Southeast 157 181 11,000  Level Salt Lake Center
Mon 08:36:51 PM 43.7219 -107.4853 126° Southeast 157 181 11,000  Level Salt Lake Center
Mon 08:37:53 PM 43.6969 -107.4361 125° Southeast 157 181 11,000  Level Salt Lake Center
Mon 08:38:55 PM 43.6714 -107.3872 126° Southeast 157 181 11,000  Level Salt Lake Center
Mon 08:39:57 PM 43.6458 -107.3358 124° Southeast 159 183 11,000  Level Salt Lake Center
Mon 08:40:59 PM 43.6208 -107.2883 126° Southeast 157 181 11,000  Level Salt Lake Center
Mon 08:42:00 PM 43.5961 -107.2406 126° Southeast 155 178 11,000  Level Salt Lake Center
Mon 08:43:02 PM 43.5664 -107.1839 126° Southeast 153 176 11,000  Level Salt Lake Center
Mon 08:44:04 PM 43.5400 -107.1347 127° Southeast 156 180 11,000  Level Salt Lake Center
Mon 08:45:06 PM 43.5128 -107.0844 127° Southeast 160 184 11,000  Level Salt Lake Center
Mon 08:46:08 PM 43.4869 -107.0336 125° Southeast 161 185 11,000  Level Salt Lake Center
Mon 08:47:10 PM 43.4622 -106.9844 125° Southeast 159 183 11,000  Level Salt Lake Center
Mon 08:48:12 PM 43.4364 -106.9342 125° Southeast 160 184 11,000 49 Level Salt Lake Center
Mon 08:49:13 PM 43.3989 -106.8878 138° Southeast 164 189 11,100  Climbing Salt Lake Center
Mon 08:50:15 PM 43.3511 -106.8558 154° Southeast 167 192 11,000 -242 Descending Salt Lake Center
Mon 08:51:17 PM 43.3142 -106.8231 147° Southeast 167 192 10,600 -581 Descending Salt Lake Center
Mon 08:52:19 PM 43.2683 -106.7858 149° Southeast 169 194 9,800 -484 Descending Salt Lake Center
Mon 08:53:21 PM 43.2286 -106.7547 150° Southeast 171 197 9,600 -194 Descending Salt Lake Center
Mon 08:54:23 PM 43.1956 -106.7233 145° Southeast 162 186 9,400 -439 Descending Salt Lake Center
Mon 08:55:24 PM 43.1553 -106.6886 148° Southeast 155 178 8,700 -627 Descending Salt Lake Center
Mon 08:56:56 PM 43.0989 -106.6414 149° Southeast 159 183 7,800 -468 Descending Denver Center
Mon 08:57:58 PM 43.0611 -106.6119 150° Southeast 159 183 7,500 -290 Descending Denver Center

Login

Don't have an account? Register now (free) for customized features, flight alerts, and more!